Flight Track Log - Related Links

Times and Time Zones

All times are in EDT time to prevent confusion due to time zone crossing. See the N654DL flight status page for this flight to view local times or setup timezone preferences in your user account.

Time Position Orientation Groundspeed Altitude Reporting Facility
EDT Latitude Longitude Course Direction KTS MPH feet Rate Location/Type
Sat 10:25:47 AM 33.4333 -111.9833 20° North 184 212 1,800  Level Phoenix TRACON
Sat 10:26:47 AM 33.4333 -111.9167 90° East 219 252 3,600 1,636 Climbing Phoenix TRACON
Sat 10:27:15 AM 33.4364 -111.8936 81° East 230 265 4,200 2,360 Climbing Albuquerque Center
Sat 10:28:00 AM 33.7854 -111.8491 20° North  Level FlightAware Approximate
Sat 10:28:16 AM 33.4675 -111.8117 66° East 281 323 7,100  Level Albuquerque Center
Sat 10:29:00 AM 33.9031 -111.7977 20° North  Level FlightAware Approximate
Sat 10:29:18 AM 33.5181 -111.7375 51° Northeast 296 341 9,100  Level Albuquerque Center
Sat 10:30:00 AM 34.0206 -111.7462 20° North  Level FlightAware Approximate
Sat 10:30:19 AM 33.6211 -111.7289 North 315 362 11,400  Level Albuquerque Center
Sat 10:31:00 AM 34.1384 -111.6951 20° North  Level FlightAware Approximate
Sat 10:31:21 AM 33.7261 -111.7289 360° North 373 429 13,300  Level Albuquerque Center
Sat 10:32:22 AM 33.8353 -111.7286 360° North 393 452 15,700 2,390 Climbing Albuquerque Center
Sat 10:33:24 AM 33.9472 -111.7275 360° North 406 467 18,200 2,293 Climbing Albuquerque Center
Sat 10:34:25 AM 34.0817 -111.7161 North 422 486 20,400 2,000 Climbing Albuquerque Center
Sat 10:35:27 AM 34.1928 -111.6539 25° Northeast 446 513 22,300 1,805 Climbing Albuquerque Center
Sat 10:36:28 AM 34.2931 -111.5561 39° Northeast 461 531 24,100 1,561 Climbing Albuquerque Center
Sat 10:37:30 AM 34.3944 -111.4567 39° Northeast 466 536 25,500 1,258 Climbing Albuquerque Center
Sat 10:38:32 AM 34.4997 -111.3522 39° Northeast 481 554 26,700 1,220 Climbing Albuquerque Center
Sat 10:39:33 AM 34.6069 -111.2469 39° Northeast 492 566 28,000 1,366 Climbing Albuquerque Center
Sat 10:40:35 AM 34.7158 -111.1394 39° Northeast 501 577 29,500 1,452 Climbing Albuquerque Center
Sat 10:41:37 AM 34.8231 -111.0317 40° Northeast 502 578 31,000 732 Climbing Albuquerque Center
Sat 10:42:38 AM 34.9508 -110.9006 40° Northeast 501 577 31,000  Level Albuquerque Center
Sat 10:43:40 AM 35.0469 -110.7739 47° Northeast 506 582 31,000 823 Level Albuquerque Center
Sat 10:44:42 AM 35.1375 -110.6533 47° Northeast 507 583 32,700 1,707 Climbing Albuquerque Center
Sat 10:45:43 AM 35.2389 -110.5200 47° Northeast 485 558 34,500 1,171 Climbing Albuquerque Center
Sat 10:46:45 AM 35.3283 -110.4033 47° Northeast 488 562 35,100 290 Climbing Albuquerque Center
Sat 10:47:47 AM 35.4322 -110.2633 48° Northeast 493 567 35,100  Level Albuquerque Center
Sat 10:48:48 AM 35.5222 -110.1450 47° Northeast 495 570 35,100  Level Albuquerque Center
Sat 10:49:50 AM 35.6278 -110.0042 47° Northeast 499 574 35,100  Level Albuquerque Center
Sat 10:50:52 AM 35.7406 -109.9258 29° Northeast 492 566 35,100  Level Albuquerque Center
Sat 10:51:54 AM 35.8417 -109.8247 39° Northeast 497 572 35,100  Level Albuquerque Center
Sat 10:52:55 AM 35.9169 -109.6550 61° Northeast 506 582 35,100  Level Albuquerque Center
Sat 10:54:00 AM 35.9878 -109.5156 58° Northeast 502 578 35,100  Level Denver Center
Sat 10:54:59 AM 36.0931 -109.3706 48° Northeast 501 577 35,100  Level Albuquerque Center
Sat 10:56:00 AM 36.1828 -109.2467 48° Northeast 500 575 35,100  Level Albuquerque Center
Sat 10:57:02 AM 36.2728 -109.1219 48° Northeast 501 577 35,100  Level Albuquerque Center
Sat 10:57:18 AM 36.2883 -109.1017 46° Northeast 501 577 35,100  Level Denver Center
Sat 10:58:20 AM 36.3936 -108.9567 48° Northeast 501 577 35,100  Level Denver Center
Sat 10:59:22 AM 36.4981 -108.8111 48° Northeast 501 577 35,100  Level Denver Center
Sat 11:00:24 AM 36.5878 -108.6856 48° Northeast 503 579 35,100  Level Denver Center
Sat 11:01:26 AM 36.6917 -108.5394 48° Northeast 504 580 35,100  Level Denver Center
Sat 11:02:28 AM 36.7808 -108.4150 48° Northeast 501 577 35,100  Level Denver Center
Sat 11:03:30 AM 36.8850 -108.2683 48° Northeast 505 581 35,100  Level Denver Center
Sat 11:04:32 AM 36.9747 -108.1408 49° Northeast 510 587 35,100  Level Denver Center
Sat 11:05:34 AM 37.0622 -108.0164 49° Northeast 499 574 35,100  Level Denver Center
Sat 11:06:36 AM 37.1628 -107.8728 49° Northeast 493 567 35,100  Level Denver Center
Sat 11:07:38 AM 37.2489 -107.7483 49° Northeast 491 565 35,100  Level Denver Center
Sat 11:08:40 AM 37.3497 -107.6031 49° Northeast 495 570 35,100  Level Denver Center
Sat 11:09:54 AM 37.4353 -107.4786 49° Northeast 492 566 35,100  Level Denver Center
Sat 11:10:56 AM 37.5503 -107.3125 49° Northeast 493 567 35,100  Level Denver Center
Sat 11:12:10 AM 37.6486 -107.1669 50° Northeast 489 563 35,100  Level Denver Center
Sat 11:13:13 AM 37.7497 -107.0222 49° Northeast 492 566 35,100  Level Denver Center
Sat 11:14:15 AM 37.8489 -106.8728 50° Northeast 489 563 35,100  Level Denver Center
Sat 11:15:17 AM 37.9333 -106.7478 49° Northeast 488 562 35,100  Level Denver Center
Sat 11:16:18 AM 38.0317 -106.6011 50° Northeast 490 564 35,100  Level Denver Center
Sat 11:17:20 AM 38.1094 -106.4867 49° Northeast 491 565 35,100  Level Denver Center
Sat 11:18:22 AM 38.1967 -106.3536 50° Northeast 491 565 35,100  Level Denver Center
Sat 11:19:24 AM 38.3022 -106.1947 50° Northeast 493 567 35,100  Level Denver Center
Sat 11:20:26 AM 38.3900 -106.0633 50° Northeast 489 563 35,100  Level Denver Center
Sat 11:21:28 AM 38.4750 -105.9347 50° Northeast 493 567 35,100  Level Denver Center
Sat 11:22:30 AM 38.5633 -105.7994 50° Northeast 491 565 35,100  Level Denver Center
Sat 11:23:32 AM 38.6669 -105.6411 50° Northeast 492 566 35,100  Level Denver Center
Sat 11:24:34 AM 38.7556 -105.5042 50° Northeast 495 570 35,100  Level Denver Center
Sat 11:25:35 AM 38.8436 -105.3678 50° Northeast 494 568 35,100  Level Denver Center
Sat 11:26:37 AM 38.9314 -105.2319 50° Northeast 491 565 35,100  Level Denver Center
Sat 11:27:39 AM 39.0183 -105.0953 51° Northeast 491 565 35,100  Level Denver Center
Sat 11:28:41 AM 39.1047 -104.9603 50° Northeast 487 560 35,100  Level Denver Center
Sat 11:29:43 AM 39.1900 -104.8256 51° Northeast 484 557 35,100  Level Denver Center
Sat 11:30:44 AM 39.2761 -104.6919 50° Northeast 479 551 35,100  Level Denver Center
Sat 11:31:46 AM 39.3744 -104.5364 51° Northeast 481 554 35,100  Level Denver Center
Sat 11:33:00 AM 39.4567 -104.4031 51° Northeast 477 549 35,100  Level Denver Center
Sat 11:34:02 AM 39.5547 -104.2464 51° Northeast 481 554 35,100  Level Denver Center
Sat 11:35:04 AM 39.6364 -104.1136 51° Northeast 472 543 35,100  Level Denver Center
Sat 11:36:05 AM 39.7064 -104.0019 51° Northeast 476 548 35,100 927 Level Denver Center
Sat 11:37:07 AM 39.8139 -103.8272 51° Northeast 461 531 37,000 968 Climbing Denver Center
Sat 11:38:09 AM 39.8922 -103.7011 51° Northeast 444 511 37,100 48 Climbing Denver Center
Sat 11:39:11 AM 39.9731 -103.5703 51° Northeast 456 525 37,100  Level Denver Center
Sat 11:40:13 AM 40.0550 -103.4344 52° Northeast 469 540 37,100  Level Denver Center
Sat 11:41:14 AM 40.1383 -103.2983 51° Northeast 474 545 37,100  Level Denver Center
Sat 11:42:16 AM 40.2200 -103.1619 52° Northeast 473 544 37,100  Level Denver Center
Sat 11:43:18 AM 40.3000 -103.0256 52° Northeast 470 541 37,100  Level Denver Center
Sat 11:44:19 AM 40.3825 -102.8897 51° Northeast 471 542 37,100  Level Denver Center
Sat 11:45:21 AM 40.4622 -102.7519 53° Northeast 471 542 37,100  Level Denver Center
Sat 11:46:23 AM 40.5447 -102.5919 56° Northeast 470 541 37,100  Level Denver Center
Sat 11:47:25 AM 40.6147 -102.4586 55° Northeast 464 534 37,100  Level Denver Center
Sat 11:48:26 AM 40.6969 -102.3019 55° Northeast 465 535 37,100  Level Denver Center
Sat 11:49:28 AM 40.7639 -102.1686 56° Northeast 458 527 37,100  Level Denver Center
Sat 11:50:30 AM 40.8444 -102.0133 56° Northeast 457 526 37,100  Level Denver Center
Sat 11:51:31 AM 40.9142 -101.8800 55° Northeast 459 528 37,100  Level Denver Center
Sat 11:52:33 AM 40.9828 -101.7453 56° Northeast 460 529 37,100  Level Denver Center
Sat 11:53:35 AM 41.0628 -101.5883 56° Northeast 459 528 37,100  Level Denver Center
Sat 11:54:37 AM 41.1311 -101.4531 56° Northeast 459 528 37,100  Level Denver Center
Sat 11:55:38 AM 41.2122 -101.2947 56° Northeast 461 531 37,100  Level Denver Center
Sat 11:56:40 AM 41.2811 -101.1564 56° Northeast 465 535 37,100  Level Denver Center
Sat 11:57:42 AM 41.3500 -101.0203 56° Northeast 462 532 37,100  Level Denver Center
Sat 11:58:44 AM 41.4292 -100.8628 56° Northeast 456 525 37,100  Level Denver Center
Sat 11:59:45 AM 41.4947 -100.7269 57° Northeast 454 522 37,100  Level Denver Center
Sat 12:00:47 PM 41.5728 -100.5711 56° Northeast 450 518 37,100  Level Denver Center
Sat 12:01:49 PM 41.6378 -100.4375 57° Northeast 448 516 37,100  Level Denver Center
Sat 12:02:50 PM 41.7136 -100.2814 57° Northeast 448 516 37,100  Level Denver Center
Sat 12:04:04 PM 41.7778 -100.1492 57° Northeast 444 511 37,100  Level Denver Center
Sat 12:05:06 PM 41.8650 -99.9692 57° Northeast 448 516 37,100  Level Denver Center
Sat 12:06:08 PM 41.9292 -99.8342 57° Northeast 448 516 37,100  Level Denver Center
Sat 12:07:10 PM 42.0011 -99.6850 57° Northeast 448 516 37,100  Level Denver Center
Sat 12:08:11 PM 42.0686 -99.5439 57° Northeast 447 514 37,100  Level Denver Center
Sat 12:09:13 PM 42.1350 -99.4033 57° Northeast 444 511 37,100  Level Denver Center
Sat 12:09:44 PM 42.1753 -99.3203 57° Northeast 444 511 37,100  Level Minneapolis Center
Sat 12:10:46 PM 42.2283 -99.2075 58° Northeast 443 510 37,100  Level Minneapolis Center
Sat 12:11:48 PM 42.3069 -99.0389 58° Northeast 442 509 37,100  Level Minneapolis Center
Sat 12:12:49 PM 42.3592 -98.9264 58° Northeast 441 507 37,100  Level Minneapolis Center
Sat 12:13:51 PM 42.4383 -98.7578 57° Northeast 440 506 37,100  Level Minneapolis Center
Sat 12:14:52 PM 42.5092 -98.6189 55° Northeast 447 514 37,100  Level Minneapolis Center
Sat 12:15:54 PM 42.5872 -98.4883 51° Northeast 446 513 37,100  Level Minneapolis Center
Sat 12:16:55 PM 42.6503 -98.3844 50° Northeast 445 512 37,100  Level Minneapolis Center
Sat 12:17:57 PM 42.7528 -98.2089 51° Northeast 446 513 37,100  Level Minneapolis Center
Sat 12:18:58 PM 42.8292 -98.0756 52° Northeast 447 514 37,100  Level Minneapolis Center
Sat 12:20:00 PM 42.9069 -97.9442 51° Northeast 447 514 37,100  Level Minneapolis Center
Sat 12:21:01 PM 42.9839 -97.8117 52° Northeast 447 514 37,100  Level Minneapolis Center
Sat 12:22:03 PM 43.0614 -97.6792 51° Northeast 447 514 37,100  Level Minneapolis Center
Sat 12:23:04 PM 43.1375 -97.5436 52° Northeast 450 518 37,100  Level Minneapolis Center
Sat 12:24:06 PM 43.2303 -97.3828 52° Northeast 448 516 37,100  Level Minneapolis Center
Sat 12:25:19 PM 43.3078 -97.2469 52° Northeast 453 521 37,100  Level Minneapolis Center
Sat 12:26:21 PM 43.4003 -97.0836 52° Northeast 454 522 37,100  Level Minneapolis Center
Sat 12:27:23 PM 43.4767 -96.9464 52° Northeast 453 521 37,100  Level Minneapolis Center
Sat 12:28:24 PM 43.5653 -96.8264 44° Northeast 455 524 37,100  Level Minneapolis Center
Sat 12:29:26 PM 43.6764 -96.7608 23° Northeast 437 503 37,100  Level Minneapolis Center
Sat 12:30:27 PM 43.7883 -96.6989 22° Northeast 434 499 37,100 -49 Level Minneapolis Center
Sat 12:31:29 PM 43.8997 -96.6369 22° Northeast 432 497 37,000 -871 Descending Minneapolis Center
Sat 12:32:31 PM 44.0342 -96.5628 22° Northeast 431 496 35,300 -1,902 Descending Minneapolis Center
Sat 12:33:32 PM 44.1472 -96.4994 22° Northeast 432 497 33,100 -2,000 Descending Minneapolis Center
Sat 12:34:34 PM 44.2372 -96.3817 43° Northeast 448 516 31,200 -1,610 Descending Minneapolis Center
Sat 12:35:35 PM 44.2653 -96.2508 73° East 432 497 29,800 -1,805 Descending Minneapolis Center
Sat 12:36:37 PM 44.3017 -96.0478 76° East 435 501 27,500 -1,984 Descending Minneapolis Center
Sat 12:37:39 PM 44.3319 -95.8850 75° East 433 498 25,700 -1,659 Descending Minneapolis Center
Sat 12:38:40 PM 44.3678 -95.7244 73° East 432 497 24,100 -780 Descending Minneapolis Center
Sat 12:39:42 PM 44.4025 -95.5642 73° East 432 497 24,100 -48 Level Minneapolis Center
Sat 12:40:44 PM 44.4367 -95.4025 73° East 434 499 24,000 -683 Descending Minneapolis Center
Sat 12:41:45 PM 44.4706 -95.2419 73° East 432 497 22,700 -1,366 Descending Minneapolis Center
Sat 12:42:47 PM 44.5036 -95.0858 73° East 422 486 21,200 -1,548 Descending Minneapolis Center
Sat 12:43:49 PM 44.5419 -94.9031 74° East 412 474 19,500 -1,707 Descending Minneapolis Center
Sat 12:44:50 PM 44.5719 -94.7550 74° East 401 461 17,700 -1,733 Descending Minneapolis Center
Sat 12:46:04 PM 44.5992 -94.6247 74° East 392 451 15,600 -2,074 Descending Minneapolis Center
Sat 12:47:06 PM 44.6333 -94.4572 74° East 372 428 13,000 -2,226 Descending Minneapolis Center
Sat 12:48:08 PM 44.6653 -94.2975 74° East 354 407 11,000 -976 Descending Minneapolis Center
Sat 12:49:09 PM 44.6917 -94.1675 74° East 349 402 11,000  Level Minneapolis Center
Sat 12:50:11 PM 44.7194 -94.0364 73° East 350 403 11,000  Level Minneapolis Center
Sat 12:51:13 PM 44.7497 -93.9058 72° East 350 403 11,000  Level Minneapolis Center
Sat 12:52:14 PM 44.7786 -93.7756 73° East 349 402 11,000  Level Minneapolis Center
Sat 12:53:16 PM 44.8069 -93.6458 73° East 348 400 11,000 -387 Level Minneapolis Center
Sat 12:54:18 PM 44.8325 -93.5292 73° East 302 348 10,200 -1,210 Descending Minneapolis Center
Sat 12:55:20 PM 44.8581 -93.4047 74° East 274 315 8,500 -1,073 Descending Minneapolis Center
Sat 12:56:21 PM 44.8253 -93.3142 117° Southeast 257 296 8,000 -244 Descending Minneapolis Center
Sat 12:57:23 PM 44.7900 -93.2261 119° Southeast 254 292 8,000  Level Minneapolis Center
Sat 12:58:24 PM 44.7547 -93.1347 119° Southeast 255 293 8,000  Level Minneapolis Center
Sat 12:59:26 PM 44.7200 -93.0475 119° Southeast 255 293 8,000  Level Minneapolis Center
Sat 01:00:27 PM 44.6861 -92.9619 119° Southeast 251 289 8,000  Level Minneapolis Center
Sat 01:01:29 PM 44.6603 -92.8956 119° Southeast 196 226 8,000 -48 Level Minneapolis Center
Sat 01:02:31 PM 44.6403 -92.8278 113° Southeast 190 219 7,900 -585 Descending Minneapolis Center
Sat 01:03:32 PM 44.6917 -92.8019 20° North 220 253 6,800 -1,082 Descending Minneapolis Center
Sat 01:04:33 PM 44.7239 -92.8569 310° West 226 260 5,700 -927 Descending Minneapolis Center
Sat 01:05:35 PM 44.7675 -92.9583 301° West 218 251 4,900 -871 Descending Minneapolis Center
Sat 01:06:37 PM 44.7964 -93.0239 302° West 200 230 3,900 -1,016 Descending Minneapolis Center
Sat 01:07:39 PM 44.8239 -93.0867 302° West 192 221 2,800 -1,065 Descending Minneapolis Center

Login

Don't have an account? Register now (free) for customized features, flight alerts, and more!